sensor_id;sensor_type;location;lat;lon;timestamp;P1;durP1;ratioP1;P2;durP2;ratioP2
15153;SDS011;7677;41.896;25.004;2023-04-01T00:00:38;1.50;;;1.40;;
15153;SDS011;7677;41.896;25.004;2023-04-01T00:03:08;2.20;;;1.40;;
15153;SDS011;7677;41.896;25.004;2023-04-01T00:05:35;2.23;;;1.33;;
15153;SDS011;7677;41.896;25.004;2023-04-01T00:08:04;1.60;;;1.30;;
15153;SDS011;7677;41.896;25.004;2023-04-01T00:10:31;1.07;;;1.07;;
15153;SDS011;7677;41.896;25.004;2023-04-01T00:12:58;1.13;;;1.13;;
15153;SDS011;7677;41.896;25.004;2023-04-01T00:15:28;2.20;;;1.50;;
15153;SDS011;7677;41.896;25.004;2023-04-01T00:17:55;1.40;;;1.30;;
15153;SDS011;7677;41.896;25.004;2023-04-01T00:20:22;1.20;;;1.17;;
15153;SDS011;7677;41.896;25.004;2023-04-01T00:22:51;3.10;;;1.40;;
15153;SDS011;7677;41.896;25.004;2023-04-01T00:25:22;1.20;;;1.10;;
15153;SDS011;7677;41.896;25.004;2023-04-01T00:27:52;1.30;;;1.20;;
15153;SDS011;7677;41.896;25.004;2023-04-01T00:30:19;2.50;;;1.30;;
15153;SDS011;7677;41.896;25.004;2023-04-01T00:32:46;1.43;;;1.20;;
15153;SDS011;7677;41.896;25.004;2023-04-01T00:35:13;2.10;;;1.40;;
15153;SDS011;7677;41.896;25.004;2023-04-01T00:37:40;1.30;;;1.20;;
15153;SDS011;7677;41.896;25.004;2023-04-01T00:40:11;1.80;;;1.70;;
15153;SDS011;7677;41.896;25.004;2023-04-01T00:42:54;1.90;;;1.37;;
15153;SDS011;7677;41.896;25.004;2023-04-01T00:45:29;1.93;;;1.47;;
15153;SDS011;7677;41.896;25.004;2023-04-01T00:48:02;1.70;;;1.10;;
15153;SDS011;7677;41.896;25.004;2023-04-01T00:50:32;1.80;;;1.50;;
15153;SDS011;7677;41.896;25.004;2023-04-01T00:53:00;3.50;;;1.30;;
15153;SDS011;7677;41.896;25.004;2023-04-01T00:55:30;1.70;;;1.60;;
15153;SDS011;7677;41.896;25.004;2023-04-01T00:58:02;4.10;;;1.60;;
15153;SDS011;7677;41.896;25.004;2023-04-01T01:00:32;2.10;;;1.90;;
15153;SDS011;7677;41.896;25.004;2023-04-01T01:02:59;4.10;;;2.00;;
15153;SDS011;7677;41.896;25.004;2023-04-01T01:05:30;3.70;;;2.20;;
15153;SDS011;7677;41.896;25.004;2023-04-01T01:08:08;3.80;;;2.03;;
15153;SDS011;7677;41.896;25.004;2023-04-01T01:10:43;6.33;;;2.57;;
15153;SDS011;7677;41.896;25.004;2023-04-01T01:13:16;2.20;;;2.00;;
15153;SDS011;7677;41.896;25.004;2023-04-01T01:15:49;1.87;;;1.77;;
15153;SDS011;7677;41.896;25.004;2023-04-01T01:18:22;1.97;;;1.80;;
15153;SDS011;7677;41.896;25.004;2023-04-01T01:24:07;2.37;;;1.97;;
15153;SDS011;7677;41.896;25.004;2023-04-01T01:29:39;3.27;;;2.27;;
15153;SDS011;7677;41.896;25.004;2023-04-01T01:32:14;2.27;;;2.07;;
15153;SDS011;7677;41.896;25.004;2023-04-01T01:34:54;5.80;;;2.23;;
15153;SDS011;7677;41.896;25.004;2023-04-01T01:37:32;2.20;;;1.90;;
15153;SDS011;7677;41.896;25.004;2023-04-01T01:40:03;3.00;;;2.17;;
15153;SDS011;7677;41.896;25.004;2023-04-01T01:42:38;2.07;;;1.83;;
15153;SDS011;7677;41.896;25.004;2023-04-01T01:45:07;3.07;;;1.87;;
15153;SDS011;7677;41.896;25.004;2023-04-01T01:47:37;2.33;;;2.00;;
15153;SDS011;7677;41.896;25.004;2023-04-01T01:50:07;3.23;;;2.10;;
15153;SDS011;7677;41.896;25.004;2023-04-01T01:52:36;2.37;;;1.80;;
15153;SDS011;7677;41.896;25.004;2023-04-01T01:57:55;2.40;;;2.20;;
15153;SDS011;7677;41.896;25.004;2023-04-01T02:00:25;2.17;;;1.97;;
15153;SDS011;7677;41.896;25.004;2023-04-01T02:02:55;2.90;;;1.80;;
15153;SDS011;7677;41.896;25.004;2023-04-01T02:05:25;2.33;;;2.10;;
15153;SDS011;7677;41.896;25.004;2023-04-01T02:07:58;6.70;;;2.07;;
15153;SDS011;7677;41.896;25.004;2023-04-01T02:10:28;1.90;;;1.80;;
15153;SDS011;7677;41.896;25.004;2023-04-01T02:12:59;2.33;;;2.00;;
15153;SDS011;7677;41.896;25.004;2023-04-01T02:15:30;2.57;;;1.63;;
15153;SDS011;7677;41.896;25.004;2023-04-01T02:17:58;2.43;;;1.77;;
15153;SDS011;7677;41.896;25.004;2023-04-01T02:20:28;2.03;;;1.83;;
15153;SDS011;7677;41.896;25.004;2023-04-01T02:22:57;2.73;;;2.00;;
15153;SDS011;7677;41.896;25.004;2023-04-01T02:25:27;3.37;;;1.97;;
15153;SDS011;7677;41.896;25.004;2023-04-01T02:27:56;3.63;;;2.37;;
15153;SDS011;7677;41.896;25.004;2023-04-01T02:30:25;5.33;;;2.00;;
15153;SDS011;7677;41.896;25.004;2023-04-01T02:32:55;2.13;;;1.97;;
15153;SDS011;7677;41.896;25.004;2023-04-01T02:35:23;1.97;;;1.80;;
15153;SDS011;7677;41.896;25.004;2023-04-01T02:37:53;2.27;;;1.93;;
15153;SDS011;7677;41.896;25.004;2023-04-01T02:40:20;7.57;;;2.90;;
15153;SDS011;7677;41.896;25.004;2023-04-01T02:42:48;2.57;;;1.80;;
15153;SDS011;7677;41.896;25.004;2023-04-01T02:45:15;3.83;;;2.33;;
15153;SDS011;7677;41.896;25.004;2023-04-01T02:47:42;3.00;;;2.30;;
15153;SDS011;7677;41.896;25.004;2023-04-01T02:50:12;3.47;;;2.10;;
15153;SDS011;7677;41.896;25.004;2023-04-01T02:52:41;2.00;;;1.83;;
15153;SDS011;7677;41.896;25.004;2023-04-01T02:55:11;1.83;;;1.73;;
15153;SDS011;7677;41.896;25.004;2023-04-01T02:57:40;2.30;;;2.10;;
15153;SDS011;7677;41.896;25.004;2023-04-01T03:00:12;4.60;;;2.33;;
15153;SDS011;7677;41.896;25.004;2023-04-01T03:02:40;3.47;;;2.40;;
15153;SDS011;7677;41.896;25.004;2023-04-01T03:05:07;2.83;;;1.93;;
15153;SDS011;7677;41.896;25.004;2023-04-01T03:07:35;2.70;;;1.93;;
15153;SDS011;7677;41.896;25.004;2023-04-01T03:10:02;1.77;;;1.67;;
15153;SDS011;7677;41.896;25.004;2023-04-01T03:12:31;4.23;;;2.07;;
15153;SDS011;7677;41.896;25.004;2023-04-01T03:14:58;2.50;;;1.70;;
15153;SDS011;7677;41.896;25.004;2023-04-01T03:17:25;6.27;;;2.40;;
15153;SDS011;7677;41.896;25.004;2023-04-01T03:19:52;3.30;;;2.27;;
15153;SDS011;7677;41.896;25.004;2023-04-01T03:22:19;3.33;;;2.47;;
15153;SDS011;7677;41.896;25.004;2023-04-01T03:24:46;3.00;;;2.63;;
15153;SDS011;7677;41.896;25.004;2023-04-01T03:27:14;3.23;;;2.27;;
15153;SDS011;7677;41.896;25.004;2023-04-01T03:29:43;4.03;;;2.00;;
15153;SDS011;7677;41.896;25.004;2023-04-01T03:32:10;2.23;;;2.00;;
15153;SDS011;7677;41.896;25.004;2023-04-01T03:34:44;1.90;;;1.70;;
15153;SDS011;7677;41.896;25.004;2023-04-01T03:37:11;5.30;;;2.50;;
15153;SDS011;7677;41.896;25.004;2023-04-01T03:39:39;2.43;;;2.20;;
15153;SDS011;7677;41.896;25.004;2023-04-01T03:42:06;2.90;;;2.20;;
15153;SDS011;7677;41.896;25.004;2023-04-01T03:44:33;4.07;;;2.23;;
15153;SDS011;7677;41.896;25.004;2023-04-01T03:47:02;5.03;;;2.10;;
15153;SDS011;7677;41.896;25.004;2023-04-01T03:49:30;2.30;;;1.77;;
15153;SDS011;7677;41.896;25.004;2023-04-01T03:51:57;3.37;;;2.10;;
15153;SDS011;7677;41.896;25.004;2023-04-01T03:54:24;2.20;;;2.00;;
15153;SDS011;7677;41.896;25.004;2023-04-01T03:56:51;2.67;;;2.30;;
15153;SDS011;7677;41.896;25.004;2023-04-01T03:59:20;4.73;;;2.27;;
15153;SDS011;7677;41.896;25.004;2023-04-01T04:01:47;2.33;;;1.60;;
15153;SDS011;7677;41.896;25.004;2023-04-01T04:04:16;1.97;;;1.80;;
15153;SDS011;7677;41.896;25.004;2023-04-01T04:06:43;3.90;;;2.10;;
15153;SDS011;7677;41.896;25.004;2023-04-01T04:09:10;1.90;;;1.80;;
15153;SDS011;7677;41.896;25.004;2023-04-01T04:11:37;2.97;;;2.10;;
15153;SDS011;7677;41.896;25.004;2023-04-01T04:14:04;2.63;;;2.00;;
15153;SDS011;7677;41.896;25.004;2023-04-01T04:16:32;3.93;;;2.60;;
15153;SDS011;7677;41.896;25.004;2023-04-01T04:19:01;3.30;;;2.63;;
15153;SDS011;7677;41.896;25.004;2023-04-01T04:21:30;2.73;;;2.10;;
15153;SDS011;7677;41.896;25.004;2023-04-01T04:23:58;1.77;;;1.67;;
15153;SDS011;7677;41.896;25.004;2023-04-01T04:26:25;2.87;;;1.80;;
15153;SDS011;7677;41.896;25.004;2023-04-01T04:28:53;2.03;;;1.63;;
15153;SDS011;7677;41.896;25.004;2023-04-01T04:31:20;4.20;;;2.30;;
15153;SDS011;7677;41.896;25.004;2023-04-01T04:33:48;2.57;;;2.10;;
15153;SDS011;7677;41.896;25.004;2023-04-01T04:36:16;3.17;;;2.17;;
15153;SDS011;7677;41.896;25.004;2023-04-01T04:38:45;4.70;;;1.93;;
15153;SDS011;7677;41.896;25.004;2023-04-01T04:41:12;5.37;;;1.80;;
15153;SDS011;7677;41.896;25.004;2023-04-01T04:43:40;2.20;;;2.00;;
15153;SDS011;7677;41.896;25.004;2023-04-01T04:46:08;9.90;;;3.00;;
15153;SDS011;7677;41.896;25.004;2023-04-01T04:48:35;3.43;;;2.30;;
15153;SDS011;7677;41.896;25.004;2023-04-01T04:51:03;2.37;;;2.00;;
15153;SDS011;7677;41.896;25.004;2023-04-01T04:53:30;3.43;;;2.50;;
15153;SDS011;7677;41.896;25.004;2023-04-01T04:55:59;2.93;;;2.23;;
15153;SDS011;7677;41.896;25.004;2023-04-01T04:58:26;2.30;;;1.90;;
15153;SDS011;7677;41.896;25.004;2023-04-01T05:00:53;2.43;;;2.23;;
15153;SDS011;7677;41.896;25.004;2023-04-01T05:03:20;2.73;;;2.53;;
15153;SDS011;7677;41.896;25.004;2023-04-01T05:05:48;5.90;;;2.00;;
15153;SDS011;7677;41.896;25.004;2023-04-01T05:08:16;2.53;;;1.93;;
15153;SDS011;7677;41.896;25.004;2023-04-01T05:10:43;1.97;;;1.80;;
15153;SDS011;7677;41.896;25.004;2023-04-01T05:13:12;3.27;;;2.10;;
15153;SDS011;7677;41.896;25.004;2023-04-01T05:15:39;3.13;;;2.13;;
15153;SDS011;7677;41.896;25.004;2023-04-01T05:18:06;2.10;;;1.90;;
15153;SDS011;7677;41.896;25.004;2023-04-01T05:20:33;2.10;;;1.73;;
15153;SDS011;7677;41.896;25.004;2023-04-01T05:23:00;2.53;;;2.03;;
15153;SDS011;7677;41.896;25.004;2023-04-01T05:25:27;2.07;;;1.97;;
15153;SDS011;7677;41.896;25.004;2023-04-01T05:27:55;4.00;;;3.20;;
15153;SDS011;7677;41.896;25.004;2023-04-01T05:30:23;5.10;;;3.70;;
15153;SDS011;7677;41.896;25.004;2023-04-01T05:32:50;4.33;;;3.87;;
15153;SDS011;7677;41.896;25.004;2023-04-01T05:35:17;4.27;;;3.40;;
15153;SDS011;7677;41.896;25.004;2023-04-01T05:37:44;7.93;;;2.40;;
15153;SDS011;7677;41.896;25.004;2023-04-01T05:40:12;3.43;;;3.00;;
15153;SDS011;7677;41.896;25.004;2023-04-01T05:42:39;4.03;;;2.87;;
15153;SDS011;7677;41.896;25.004;2023-04-01T05:45:10;4.17;;;2.47;;
15153;SDS011;7677;41.896;25.004;2023-04-01T05:47:42;3.77;;;2.80;;
15153;SDS011;7677;41.896;25.004;2023-04-01T05:50:09;4.37;;;2.73;;
15153;SDS011;7677;41.896;25.004;2023-04-01T05:52:36;3.60;;;2.70;;
15153;SDS011;7677;41.896;25.004;2023-04-01T05:55:04;2.63;;;2.40;;
15153;SDS011;7677;41.896;25.004;2023-04-01T05:57:32;3.30;;;3.00;;
15153;SDS011;7677;41.896;25.004;2023-04-01T05:59:59;2.80;;;2.30;;
15153;SDS011;7677;41.896;25.004;2023-04-01T06:02:26;2.70;;;2.40;;
15153;SDS011;7677;41.896;25.004;2023-04-01T06:04:59;3.80;;;2.73;;
15153;SDS011;7677;41.896;25.004;2023-04-01T06:07:30;3.87;;;2.60;;
15153;SDS011;7677;41.896;25.004;2023-04-01T06:09:57;4.23;;;3.27;;
15153;SDS011;7677;41.896;25.004;2023-04-01T06:12:36;6.43;;;4.17;;
15153;SDS011;7677;41.896;25.004;2023-04-01T06:15:13;8.90;;;4.57;;
15153;SDS011;7677;41.896;25.004;2023-04-01T06:17:52;7.70;;;5.47;;
15153;SDS011;7677;41.896;25.004;2023-04-01T06:20:40;8.53;;;5.80;;
15153;SDS011;7677;41.896;25.004;2023-04-01T06:23:24;18.70;;;7.33;;
15153;SDS011;7677;41.896;25.004;2023-04-01T06:26:02;9.53;;;5.70;;
15153;SDS011;7677;41.896;25.004;2023-04-01T06:28:57;7.80;;;5.60;;
15153;SDS011;7677;41.896;25.004;2023-04-01T06:31:38;10.37;;;6.83;;
15153;SDS011;7677;41.896;25.004;2023-04-01T06:34:21;12.30;;;6.97;;
15153;SDS011;7677;41.896;25.004;2023-04-01T06:37:14;10.20;;;6.73;;
15153;SDS011;7677;41.896;25.004;2023-04-01T06:40:06;12.57;;;8.67;;
15153;SDS011;7677;41.896;25.004;2023-04-01T06:42:42;9.23;;;6.37;;
15153;SDS011;7677;41.896;25.004;2023-04-01T06:45:20;8.57;;;6.37;;
15153;SDS011;7677;41.896;25.004;2023-04-01T06:50:53;9.87;;;4.43;;
15153;SDS011;7677;41.896;25.004;2023-04-01T06:53:26;6.80;;;3.80;;
15153;SDS011;7677;41.896;25.004;2023-04-01T06:55:59;4.63;;;3.27;;
15153;SDS011;7677;41.896;25.004;2023-04-01T06:58:30;3.67;;;3.37;;
15153;SDS011;7677;41.896;25.004;2023-04-01T07:01:01;19.03;;;3.27;;
15153;SDS011;7677;41.896;25.004;2023-04-01T07:03:30;4.17;;;3.10;;
15153;SDS011;7677;41.896;25.004;2023-04-01T07:06:01;4.73;;;3.17;;
15153;SDS011;7677;41.896;25.004;2023-04-01T07:08:31;3.33;;;2.80;;
15153;SDS011;7677;41.896;25.004;2023-04-01T07:11:01;4.53;;;2.93;;
15153;SDS011;7677;41.896;25.004;2023-04-01T07:13:31;3.90;;;2.53;;
15153;SDS011;7677;41.896;25.004;2023-04-01T07:16:10;3.87;;;3.07;;
15153;SDS011;7677;41.896;25.004;2023-04-01T07:18:41;5.03;;;3.07;;
15153;SDS011;7677;41.896;25.004;2023-04-01T07:21:13;3.30;;;3.00;;
15153;SDS011;7677;41.896;25.004;2023-04-01T07:23:48;6.00;;;4.17;;
15153;SDS011;7677;41.896;25.004;2023-04-01T07:26:19;3.83;;;2.73;;
15153;SDS011;7677;41.896;25.004;2023-04-01T07:28:47;4.70;;;3.50;;
15153;SDS011;7677;41.896;25.004;2023-04-01T07:34:12;4.70;;;3.43;;
15153;SDS011;7677;41.896;25.004;2023-04-01T07:36:45;6.70;;;4.20;;
15153;SDS011;7677;41.896;25.004;2023-04-01T07:39:20;3.73;;;3.43;;
15153;SDS011;7677;41.896;25.004;2023-04-01T07:41:55;4.00;;;3.60;;
15153;SDS011;7677;41.896;25.004;2023-04-01T07:44:27;3.20;;;2.90;;
15153;SDS011;7677;41.896;25.004;2023-04-01T07:47:05;5.10;;;3.60;;
15153;SDS011;7677;41.896;25.004;2023-04-01T07:49:40;6.57;;;3.90;;
15153;SDS011;7677;41.896;25.004;2023-04-01T07:52:13;5.17;;;2.87;;
15153;SDS011;7677;41.896;25.004;2023-04-01T07:54:47;4.53;;;2.90;;
15153;SDS011;7677;41.896;25.004;2023-04-01T07:57:18;4.77;;;2.83;;
15153;SDS011;7677;41.896;25.004;2023-04-01T07:59:48;7.07;;;3.87;;
15153;SDS011;7677;41.896;25.004;2023-04-01T08:02:26;3.43;;;3.13;;
15153;SDS011;7677;41.896;25.004;2023-04-01T08:05:00;3.63;;;3.10;;
15153;SDS011;7677;41.896;25.004;2023-04-01T08:07:33;5.63;;;3.53;;
15153;SDS011;7677;41.896;25.004;2023-04-01T08:10:07;5.47;;;3.50;;
15153;SDS011;7677;41.896;25.004;2023-04-01T08:12:42;6.33;;;4.33;;
15153;SDS011;7677;41.896;25.004;2023-04-01T08:15:16;13.00;;;5.73;;
15153;SDS011;7677;41.896;25.004;2023-04-01T08:17:54;4.80;;;4.07;;
15153;SDS011;7677;41.896;25.004;2023-04-01T08:20:32;5.07;;;3.67;;
15153;SDS011;7677;41.896;25.004;2023-04-01T08:23:03;5.53;;;3.90;;
15153;SDS011;7677;41.896;25.004;2023-04-01T08:25:36;4.67;;;3.80;;
15153;SDS011;7677;41.896;25.004;2023-04-01T08:28:08;3.13;;;2.80;;
15153;SDS011;7677;41.896;25.004;2023-04-01T08:30:39;5.70;;;3.33;;
15153;SDS011;7677;41.896;25.004;2023-04-01T08:33:11;5.77;;;4.43;;
15153;SDS011;7677;41.896;25.004;2023-04-01T08:35:41;5.80;;;4.03;;
15153;SDS011;7677;41.896;25.004;2023-04-01T08:38:11;3.90;;;3.30;;
15153;SDS011;7677;41.896;25.004;2023-04-01T08:40:54;5.83;;;4.67;;
15153;SDS011;7677;41.896;25.004;2023-04-01T08:43:26;4.00;;;3.07;;
15153;SDS011;7677;41.896;25.004;2023-04-01T08:46:06;5.47;;;3.10;;
15153;SDS011;7677;41.896;25.004;2023-04-01T08:51:34;4.27;;;3.47;;
15153;SDS011;7677;41.896;25.004;2023-04-01T08:54:18;20.83;;;10.63;;
15153;SDS011;7677;41.896;25.004;2023-04-01T08:59:59;3.57;;;3.27;;
15153;SDS011;7677;41.896;25.004;2023-04-01T09:05:37;3.70;;;3.30;;
15153;SDS011;7677;41.896;25.004;2023-04-01T09:08:20;4.73;;;3.70;;
15153;SDS011;7677;41.896;25.004;2023-04-01T09:10:59;4.00;;;3.40;;
15153;SDS011;7677;41.896;25.004;2023-04-01T09:16:40;3.57;;;2.70;;
15153;SDS011;7677;41.896;25.004;2023-04-01T09:19:33;4.97;;;2.77;;
15153;SDS011;7677;41.896;25.004;2023-04-01T09:27:56;3.77;;;3.37;;
15153;SDS011;7677;41.896;25.004;2023-04-01T09:30:32;4.57;;;3.50;;
15153;SDS011;7677;41.896;25.004;2023-04-01T09:36:43;4.83;;;3.77;;
15153;SDS011;7677;41.896;25.004;2023-04-01T09:39:16;4.80;;;3.30;;
15153;SDS011;7677;41.896;25.004;2023-04-01T09:41:54;4.60;;;3.43;;
15153;SDS011;7677;41.896;25.004;2023-04-01T09:44:29;5.20;;;3.60;;
15153;SDS011;7677;41.896;25.004;2023-04-01T09:47:04;4.23;;;3.80;;
15153;SDS011;7677;41.896;25.004;2023-04-01T09:49:45;4.20;;;3.80;;
15153;SDS011;7677;41.896;25.004;2023-04-01T09:52:27;5.63;;;4.33;;
15153;SDS011;7677;41.896;25.004;2023-04-01T09:55:01;3.77;;;3.43;;
15153;SDS011;7677;41.896;25.004;2023-04-01T09:57:47;7.17;;;4.07;;
15153;SDS011;7677;41.896;25.004;2023-04-01T10:00:39;6.57;;;4.00;;
15153;SDS011;7677;41.896;25.004;2023-04-01T10:06:30;3.75;;;3.42;;
15153;SDS011;7677;41.896;25.004;2023-04-01T10:12:28;7.77;;;3.50;;
15153;SDS011;7677;41.896;25.004;2023-04-01T10:18:44;4.83;;;3.23;;
15153;SDS011;7677;41.896;25.004;2023-04-01T10:24:40;6.07;;;3.77;;
15153;SDS011;7677;41.896;25.004;2023-04-01T10:27:34;5.67;;;3.60;;
15153;SDS011;7677;41.896;25.004;2023-04-01T10:36:31;4.23;;;3.83;;
15153;SDS011;7677;41.896;25.004;2023-04-01T10:39:17;4.60;;;3.23;;
15153;SDS011;7677;41.896;25.004;2023-04-01T10:45:03;4.80;;;3.77;;
15153;SDS011;7677;41.896;25.004;2023-04-01T10:51:01;5.70;;;4.30;;
15153;SDS011;7677;41.896;25.004;2023-04-01T10:53:40;9.63;;;4.40;;
15153;SDS011;7677;41.896;25.004;2023-04-01T10:56:29;3.87;;;3.47;;
15153;SDS011;7677;41.896;25.004;2023-04-01T11:02:19;5.07;;;4.00;;
15153;SDS011;7677;41.896;25.004;2023-04-01T11:05:21;6.27;;;4.43;;
15153;SDS011;7677;41.896;25.004;2023-04-01T11:14:32;4.07;;;3.67;;
15153;SDS011;7677;41.896;25.004;2023-04-01T11:23:53;5.53;;;4.13;;
15153;SDS011;7677;41.896;25.004;2023-04-01T11:26:32;6.50;;;4.87;;
15153;SDS011;7677;41.896;25.004;2023-04-01T11:31:55;6.53;;;4.83;;
15153;SDS011;7677;41.896;25.004;2023-04-01T11:34:32;6.50;;;5.00;;
15153;SDS011;7677;41.896;25.004;2023-04-01T11:37:08;8.73;;;5.03;;
15153;SDS011;7677;41.896;25.004;2023-04-01T11:39:45;8.40;;;5.00;;
15153;SDS011;7677;41.896;25.004;2023-04-01T11:42:24;7.00;;;5.17;;
15153;SDS011;7677;41.896;25.004;2023-04-01T11:44:58;8.07;;;4.77;;
15153;SDS011;7677;41.896;25.004;2023-04-01T11:47:45;5.97;;;5.00;;
15153;SDS011;7677;41.896;25.004;2023-04-01T11:50:21;3.97;;;3.50;;
15153;SDS011;7677;41.896;25.004;2023-04-01T11:52:55;5.33;;;3.67;;
15153;SDS011;7677;41.896;25.004;2023-04-01T11:55:58;5.30;;;3.90;;
15153;SDS011;7677;41.896;25.004;2023-04-01T11:58:40;3.50;;;3.13;;
15153;SDS011;7677;41.896;25.004;2023-04-01T12:01:31;4.30;;;3.47;;
15153;SDS011;7677;41.896;25.004;2023-04-01T12:04:18;6.20;;;3.90;;
15153;SDS011;7677;41.896;25.004;2023-04-01T12:06:55;6.00;;;3.23;;
15153;SDS011;7677;41.896;25.004;2023-04-01T12:12:20;6.63;;;3.53;;
15153;SDS011;7677;41.896;25.004;2023-04-01T12:14:54;5.30;;;3.20;;
15153;SDS011;7677;41.896;25.004;2023-04-01T12:17:34;6.57;;;3.30;;
15153;SDS011;7677;41.896;25.004;2023-04-01T12:20:12;5.07;;;3.37;;
15153;SDS011;7677;41.896;25.004;2023-04-01T12:22:49;3.60;;;2.87;;
15153;SDS011;7677;41.896;25.004;2023-04-01T12:25:27;3.43;;;2.93;;
15153;SDS011;7677;41.896;25.004;2023-04-01T12:28:22;6.73;;;2.87;;
15153;SDS011;7677;41.896;25.004;2023-04-01T12:31:01;4.87;;;3.33;;
15153;SDS011;7677;41.896;25.004;2023-04-01T12:33:39;3.23;;;2.53;;
15153;SDS011;7677;41.896;25.004;2023-04-01T12:36:18;4.03;;;2.70;;
15153;SDS011;7677;41.896;25.004;2023-04-01T12:39:02;3.77;;;3.37;;
15153;SDS011;7677;41.896;25.004;2023-04-01T12:41:46;4.47;;;3.40;;
15153;SDS011;7677;41.896;25.004;2023-04-01T12:47:30;4.13;;;3.37;;
15153;SDS011;7677;41.896;25.004;2023-04-01T12:50:24;6.43;;;3.27;;
15153;SDS011;7677;41.896;25.004;2023-04-01T12:52:58;4.03;;;3.30;;
15153;SDS011;7677;41.896;25.004;2023-04-01T12:55:39;4.17;;;3.43;;
15153;SDS011;7677;41.896;25.004;2023-04-01T13:01:08;3.90;;;3.17;;
15153;SDS011;7677;41.896;25.004;2023-04-01T13:03:50;6.30;;;3.77;;
15153;SDS011;7677;41.896;25.004;2023-04-01T13:06:27;4.00;;;3.60;;
15153;SDS011;7677;41.896;25.004;2023-04-01T13:09:01;4.07;;;3.67;;
15153;SDS011;7677;41.896;25.004;2023-04-01T13:11:45;7.17;;;4.03;;
15153;SDS011;7677;41.896;25.004;2023-04-01T13:14:24;7.13;;;4.40;;
15153;SDS011;7677;41.896;25.004;2023-04-01T13:17:01;6.43;;;3.67;;
15153;SDS011;7677;41.896;25.004;2023-04-01T13:19:36;3.63;;;3.13;;
15153;SDS011;7677;41.896;25.004;2023-04-01T13:22:08;3.30;;;2.87;;
15153;SDS011;7677;41.896;25.004;2023-04-01T13:24:40;7.20;;;3.67;;
15153;SDS011;7677;41.896;25.004;2023-04-01T13:27:12;4.50;;;3.67;;
15153;SDS011;7677;41.896;25.004;2023-04-01T13:29:44;6.30;;;3.70;;
15153;SDS011;7677;41.896;25.004;2023-04-01T13:32:26;7.00;;;3.85;;
15153;SDS011;7677;41.896;25.004;2023-04-01T13:35:02;3.30;;;2.67;;
15153;SDS011;7677;41.896;25.004;2023-04-01T13:37:46;4.95;;;3.45;;
15153;SDS011;7677;41.896;25.004;2023-04-01T13:40:36;7.53;;;3.72;;
15153;SDS011;7677;41.896;25.004;2023-04-01T13:43:11;5.35;;;3.38;;
15153;SDS011;7677;41.896;25.004;2023-04-01T13:45:44;5.43;;;3.53;;
15153;SDS011;7677;41.896;25.004;2023-04-01T13:48:24;3.35;;;3.05;;
15153;SDS011;7677;41.896;25.004;2023-04-01T13:50:59;5.80;;;3.05;;
15153;SDS011;7677;41.896;25.004;2023-04-01T13:56:47;7.50;;;3.95;;
15153;SDS011;7677;41.896;25.004;2023-04-01T13:59:24;3.20;;;2.90;;
15153;SDS011;7677;41.896;25.004;2023-04-01T14:02:17;4.43;;;3.05;;
15153;SDS011;7677;41.896;25.004;2023-04-01T14:04:58;8.70;;;3.33;;
15153;SDS011;7677;41.896;25.004;2023-04-01T14:07:41;6.07;;;3.23;;
15153;SDS011;7677;41.896;25.004;2023-04-01T14:10:18;5.67;;;3.50;;
15153;SDS011;7677;41.896;25.004;2023-04-01T14:12:48;8.03;;;4.13;;
15153;SDS011;7677;41.896;25.004;2023-04-01T14:15:25;4.63;;;4.23;;
15153;SDS011;7677;41.896;25.004;2023-04-01T14:21:13;6.80;;;4.53;;
15153;SDS011;7677;41.896;25.004;2023-04-01T14:23:52;6.53;;;4.77;;
15153;SDS011;7677;41.896;25.004;2023-04-01T14:27:06;5.43;;;4.90;;
15153;SDS011;7677;41.896;25.004;2023-04-01T14:29:40;5.23;;;4.73;;
15153;SDS011;7677;41.896;25.004;2023-04-01T14:32:15;5.00;;;4.50;;
15153;SDS011;7677;41.896;25.004;2023-04-01T14:34:47;6.17;;;4.17;;
15153;SDS011;7677;41.896;25.004;2023-04-01T14:37:32;4.13;;;3.57;;
15153;SDS011;7677;41.896;25.004;2023-04-01T14:40:26;4.97;;;4.30;;
15153;SDS011;7677;41.896;25.004;2023-04-01T14:46:01;4.43;;;3.77;;
15153;SDS011;7677;41.896;25.004;2023-04-01T14:48:37;5.77;;;4.80;;
15153;SDS011;7677;41.896;25.004;2023-04-01T14:51:09;6.17;;;4.20;;
15153;SDS011;7677;41.896;25.004;2023-04-01T14:53:41;5.83;;;4.57;;
15153;SDS011;7677;41.896;25.004;2023-04-01T14:56:12;4.97;;;3.87;;
15153;SDS011;7677;41.896;25.004;2023-04-01T14:58:41;6.57;;;4.53;;
15153;SDS011;7677;41.896;25.004;2023-04-01T15:04:04;3.47;;;3.17;;
15153;SDS011;7677;41.896;25.004;2023-04-01T15:06:51;4.20;;;3.53;;
15153;SDS011;7677;41.896;25.004;2023-04-01T15:09:30;6.73;;;4.80;;
15153;SDS011;7677;41.896;25.004;2023-04-01T15:12:06;8.73;;;5.53;;
15153;SDS011;7677;41.896;25.004;2023-04-01T15:14:51;4.27;;;3.53;;
15153;SDS011;7677;41.896;25.004;2023-04-01T15:17:35;3.00;;;2.77;;
15153;SDS011;7677;41.896;25.004;2023-04-01T15:20:36;4.77;;;2.63;;
15153;SDS011;7677;41.896;25.004;2023-04-01T15:23:14;5.23;;;2.43;;
15153;SDS011;7677;41.896;25.004;2023-04-01T15:25:51;2.50;;;2.23;;
15153;SDS011;7677;41.896;25.004;2023-04-01T15:28:41;3.77;;;2.50;;
15153;SDS011;7677;41.896;25.004;2023-04-01T15:31:14;3.00;;;2.80;;
15153;SDS011;7677;41.896;25.004;2023-04-01T15:33:48;2.53;;;2.37;;
15153;SDS011;7677;41.896;25.004;2023-04-01T15:36:24;1.90;;;1.80;;
15153;SDS011;7677;41.896;25.004;2023-04-01T15:38:57;2.30;;;2.10;;
15153;SDS011;7677;41.896;25.004;2023-04-01T15:41:34;2.00;;;1.87;;
15153;SDS011;7677;41.896;25.004;2023-04-01T15:44:24;3.63;;;2.33;;
15153;SDS011;7677;41.896;25.004;2023-04-01T15:46:53;6.63;;;4.87;;
15153;SDS011;7677;41.896;25.004;2023-04-01T15:49:26;7.10;;;5.57;;
15153;SDS011;7677;41.896;25.004;2023-04-01T15:52:03;8.60;;;7.03;;
15153;SDS011;7677;41.896;25.004;2023-04-01T15:54:57;10.07;;;6.40;;
15153;SDS011;7677;41.896;25.004;2023-04-01T15:57:33;5.50;;;3.90;;
15153;SDS011;7677;41.896;25.004;2023-04-01T16:00:19;2.70;;;2.50;;
15153;SDS011;7677;41.896;25.004;2023-04-01T16:02:52;2.60;;;1.90;;
15153;SDS011;7677;41.896;25.004;2023-04-01T16:05:51;2.13;;;1.53;;
15153;SDS011;7677;41.896;25.004;2023-04-01T16:11:20;1.70;;;1.60;;
15153;SDS011;7677;41.896;25.004;2023-04-01T16:13:54;2.00;;;1.70;;
15153;SDS011;7677;41.896;25.004;2023-04-01T16:16:31;2.40;;;1.97;;
15153;SDS011;7677;41.896;25.004;2023-04-01T16:19:12;1.83;;;1.70;;
15153;SDS011;7677;41.896;25.004;2023-04-01T16:21:48;2.53;;;2.20;;
15153;SDS011;7677;41.896;25.004;2023-04-01T16:24:19;1.97;;;1.87;;
15153;SDS011;7677;41.896;25.004;2023-04-01T16:26:51;2.07;;;1.40;;
15153;SDS011;7677;41.896;25.004;2023-04-01T16:29:24;1.90;;;1.20;;
15153;SDS011;7677;41.896;25.004;2023-04-01T16:31:58;1.07;;;1.07;;
15153;SDS011;7677;41.896;25.004;2023-04-01T16:34:34;1.03;;;1.03;;
15153;SDS011;7677;41.896;25.004;2023-04-01T16:37:05;0.87;;;0.87;;
15153;SDS011;7677;41.896;25.004;2023-04-01T16:39:41;2.77;;;1.53;;
15153;SDS011;7677;41.896;25.004;2023-04-01T16:42:16;5.33;;;3.63;;
15153;SDS011;7677;41.896;25.004;2023-04-01T16:44:52;4.47;;;3.53;;
15153;SDS011;7677;41.896;25.004;2023-04-01T16:47:23;4.83;;;4.00;;
15153;SDS011;7677;41.896;25.004;2023-04-01T16:49:56;5.23;;;4.20;;
15153;SDS011;7677;41.896;25.004;2023-04-01T16:52:43;3.90;;;3.60;;
15153;SDS011;7677;41.896;25.004;2023-04-01T16:55:24;3.27;;;2.93;;
15153;SDS011;7677;41.896;25.004;2023-04-01T16:58:05;3.13;;;2.20;;
15153;SDS011;7677;41.896;25.004;2023-04-01T17:00:36;4.33;;;2.83;;
15153;SDS011;7677;41.896;25.004;2023-04-01T17:03:11;3.23;;;2.93;;
15153;SDS011;7677;41.896;25.004;2023-04-01T17:05:49;5.27;;;3.93;;
15153;SDS011;7677;41.896;25.004;2023-04-01T17:08:25;6.87;;;5.73;;
15153;SDS011;7677;41.896;25.004;2023-04-01T17:11:02;13.50;;;8.87;;
15153;SDS011;7677;41.896;25.004;2023-04-01T17:13:36;10.33;;;8.67;;
15153;SDS011;7677;41.896;25.004;2023-04-01T17:16:14;4.63;;;3.87;;